sensor_id;sensor_type;location;lat;lon;timestamp;pressure;altitude;pressure_sealevel;temperature;humidity
71716;BME280;59568;52.128;5.434;2023-01-13T00:00:16;100448.72;;;7.24;100.00
71716;BME280;59568;52.128;5.434;2023-01-13T00:02:42;100435.53;;;7.15;100.00
71716;BME280;59568;52.128;5.434;2023-01-13T00:05:10;100450.88;;;7.12;100.00
71716;BME280;59568;52.128;5.434;2023-01-13T00:07:37;100442.34;;;7.06;100.00
71716;BME280;59568;52.128;5.434;2023-01-13T00:10:07;100442.91;;;6.98;100.00
71716;BME280;59568;52.128;5.434;2023-01-13T00:12:34;100446.06;;;6.95;100.00
71716;BME280;59568;52.128;5.434;2023-01-13T00:15:01;100445.31;;;6.89;100.00
71716;BME280;59568;52.128;5.434;2023-01-13T00:17:28;100435.00;;;6.84;100.00
71716;BME280;59568;52.128;5.434;2023-01-13T00:19:55;100440.47;;;6.77;100.00
71716;BME280;59568;52.128;5.434;2023-01-13T00:22:22;100437.91;;;6.72;100.00
71716;BME280;59568;52.128;5.434;2023-01-13T00:24:48;100437.13;;;6.72;100.00
71716;BME280;59568;52.128;5.434;2023-01-13T00:27:16;100449.06;;;6.68;100.00
71716;BME280;59568;52.128;5.434;2023-01-13T00:29:42;100444.44;;;6.65;100.00
71716;BME280;59568;52.128;5.434;2023-01-13T00:32:09;100448.09;;;6.58;100.00
71716;BME280;59568;52.128;5.434;2023-01-13T00:34:36;100449.41;;;6.56;100.00
71716;BME280;59568;52.128;5.434;2023-01-13T00:37:04;100457.47;;;6.54;100.00
71716;BME280;59568;52.128;5.434;2023-01-13T00:39:32;100459.00;;;6.55;100.00
71716;BME280;59568;52.128;5.434;2023-01-13T00:42:01;100458.75;;;6.57;100.00
71716;BME280;59568;52.128;5.434;2023-01-13T00:44:46;100452.00;;;6.56;100.00
71716;BME280;59568;52.128;5.434;2023-01-13T00:47:13;100447.34;;;6.53;100.00
71716;BME280;59568;52.128;5.434;2023-01-13T00:49:39;100443.72;;;6.49;100.00
71716;BME280;59568;52.128;5.434;2023-01-13T00:52:06;100433.88;;;6.46;100.00
71716;BME280;59568;52.128;5.434;2023-01-13T00:54:32;100441.41;;;6.47;100.00
71716;BME280;59568;52.128;5.434;2023-01-13T00:57:00;100435.44;;;6.47;100.00
71716;BME280;59568;52.128;5.434;2023-01-13T00:59:26;100424.81;;;6.48;100.00
71716;BME280;59568;52.128;5.434;2023-01-13T01:01:53;100419.09;;;6.46;100.00
71716;BME280;59568;52.128;5.434;2023-01-13T01:04:22;100412.06;;;6.47;100.00
71716;BME280;59568;52.128;5.434;2023-01-13T01:06:50;100414.13;;;6.50;100.00
71716;BME280;59568;52.128;5.434;2023-01-13T01:09:17;100414.41;;;6.48;100.00
71716;BME280;59568;52.128;5.434;2023-01-13T01:11:46;100404.81;;;6.49;100.00
71716;BME280;59568;52.128;5.434;2023-01-13T01:14:13;100407.41;;;6.49;100.00
71716;BME280;59568;52.128;5.434;2023-01-13T01:16:45;100402.97;;;6.49;100.00
71716;BME280;59568;52.128;5.434;2023-01-13T01:19:11;100403.53;;;6.46;100.00
71716;BME280;59568;52.128;5.434;2023-01-13T01:21:38;100406.63;;;6.48;100.00
71716;BME280;59568;52.128;5.434;2023-01-13T01:24:05;100415.69;;;6.51;100.00
71716;BME280;59568;52.128;5.434;2023-01-13T01:26:32;100404.53;;;6.50;100.00
71716;BME280;59568;52.128;5.434;2023-01-13T01:28:58;100399.59;;;6.49;100.00
71716;BME280;59568;52.128;5.434;2023-01-13T01:31:32;100406.84;;;6.52;100.00
71716;BME280;59568;52.128;5.434;2023-01-13T01:34:02;100397.53;;;6.51;100.00
71716;BME280;59568;52.128;5.434;2023-01-13T01:36:31;100400.13;;;6.51;100.00
71716;BME280;59568;52.128;5.434;2023-01-13T01:38:58;100399.59;;;6.49;100.00
71716;BME280;59568;52.128;5.434;2023-01-13T01:41:30;100412.59;;;6.49;100.00
71716;BME280;59568;52.128;5.434;2023-01-13T01:44:52;100412.03;;;6.52;100.00
71716;BME280;59568;52.128;5.434;2023-01-13T01:46:53;100429.44;;;6.51;100.00
71716;BME280;59568;52.128;5.434;2023-01-13T01:49:33;100421.13;;;6.54;100.00
71716;BME280;59568;52.128;5.434;2023-01-13T01:52:10;100431.78;;;6.53;100.00
71716;BME280;59568;52.128;5.434;2023-01-13T01:54:49;100434.09;;;6.54;100.00
71716;BME280;59568;52.128;5.434;2023-01-13T01:57:50;100437.47;;;6.55;100.00
71716;BME280;59568;52.128;5.434;2023-01-13T02:00:19;100431.22;;;6.56;100.00
71716;BME280;59568;52.128;5.434;2023-01-13T02:02:49;100432.78;;;6.57;100.00
71716;BME280;59568;52.128;5.434;2023-01-13T02:05:20;100421.91;;;6.55;100.00
71716;BME280;59568;52.128;5.434;2023-01-13T02:07:48;100412.84;;;6.52;100.00
71716;BME280;59568;52.128;5.434;2023-01-13T02:10:20;100414.13;;;6.50;100.00
71716;BME280;59568;52.128;5.434;2023-01-13T02:12:47;100408.72;;;6.46;100.00
71716;BME280;59568;52.128;5.434;2023-01-13T02:30:03;100394.22;;;6.35;100.00
71716;BME280;59568;52.128;5.434;2023-01-13T02:36:24;100395.28;;;6.34;100.00
71716;BME280;59568;52.128;5.434;2023-01-13T02:39:00;100402.28;;;6.33;100.00
71716;BME280;59568;52.128;5.434;2023-01-13T02:41:38;100381.25;;;6.35;100.00
71716;BME280;59568;52.128;5.434;2023-01-13T02:44:32;100377.63;;;6.36;100.00
71716;BME280;59568;52.128;5.434;2023-01-13T02:47:32;100371.13;;;6.38;100.00
71716;BME280;59568;52.128;5.434;2023-01-13T02:50:08;100372.41;;;6.41;100.00
71716;BME280;59568;52.128;5.434;2023-01-13T02:52:45;100370.84;;;6.40;100.00
71716;BME280;59568;52.128;5.434;2023-01-13T02:55:28;100379.41;;;6.40;100.00
71716;BME280;59568;52.128;5.434;2023-01-13T02:57:57;100376.81;;;6.40;100.00
71716;BME280;59568;52.128;5.434;2023-01-13T03:00:27;100381.75;;;6.42;100.00
71716;BME280;59568;52.128;5.434;2023-01-13T03:02:54;100372.41;;;6.41;100.00
71716;BME280;59568;52.128;5.434;2023-01-13T03:05:21;100372.66;;;6.39;100.00
71716;BME280;59568;52.128;5.434;2023-01-13T03:21:44;100374.22;;;6.35;100.00
71716;BME280;59568;52.128;5.434;2023-01-13T03:24:20;100361.31;;;6.30;100.00
71716;BME280;59568;52.128;5.434;2023-01-13T03:27:14;100371.19;;;6.28;100.00
71716;BME280;59568;52.128;5.434;2023-01-13T03:30:08;100366.75;;;6.29;100.00
71716;BME280;59568;52.128;5.434;2023-01-13T03:32:38;100368.06;;;6.26;100.00
71716;BME280;59568;52.128;5.434;2023-01-13T03:35:25;100358.97;;;6.24;100.00
71716;BME280;59568;52.128;5.434;2023-01-13T03:38:01;100361.59;;;6.24;100.00
71716;BME280;59568;52.128;5.434;2023-01-13T03:40:32;100368.34;;;6.19;100.00
71716;BME280;59568;52.128;5.434;2023-01-13T03:43:09;100380.28;;;6.20;100.00
71716;BME280;59568;52.128;5.434;2023-01-13T03:46:01;100396.88;;;6.25;100.00
71716;BME280;59568;52.128;5.434;2023-01-13T03:48:32;100380.25;;;6.31;100.00
71716;BME280;59568;52.128;5.434;2023-01-13T03:51:05;100375.81;;;6.31;100.00
71716;BME280;59568;52.128;5.434;2023-01-13T03:53:50;100359.22;;;6.32;100.00
71716;BME280;59568;52.128;5.434;2023-01-13T03:56:41;100365.44;;;6.31;100.00
71716;BME280;59568;52.128;5.434;2023-01-13T03:59:17;100366.00;;;6.28;100.00
71716;BME280;59568;52.128;5.434;2023-01-13T04:02:00;100367.25;;;6.36;100.00
71716;BME280;59568;52.128;5.434;2023-01-13T04:04:32;100355.84;;;6.32;100.00
71716;BME280;59568;52.128;5.434;2023-01-13T04:10:08;100369.09;;;6.30;100.00
71716;BME280;59568;52.128;5.434;2023-01-13T04:12:52;100363.91;;;6.30;100.00
71716;BME280;59568;52.128;5.434;2023-01-13T04:15:31;100359.22;;;6.27;100.00
71716;BME280;59568;52.128;5.434;2023-01-13T04:18:13;100371.19;;;6.23;100.00
71716;BME280;59568;52.128;5.434;2023-01-13T04:20:42;100370.69;;;6.21;100.00
71716;BME280;59568;52.128;5.434;2023-01-13T04:23:10;100361.38;;;6.15;100.00
71716;BME280;59568;52.128;5.434;2023-01-13T04:25:42;100377.44;;;6.17;100.00
71716;BME280;59568;52.128;5.434;2023-01-13T04:28:10;100379.03;;;6.13;100.00
71716;BME280;59568;52.128;5.434;2023-01-13T04:30:37;100377.47;;;6.12;100.00
71716;BME280;59568;52.128;5.434;2023-01-13T04:33:04;100372.03;;;6.08;100.00
71716;BME280;59568;52.128;5.434;2023-01-13T04:35:32;100380.59;;;6.09;100.00
71716;BME280;59568;52.128;5.434;2023-01-13T04:38:00;100371.00;;;6.09;100.00
71716;BME280;59568;52.128;5.434;2023-01-13T04:40:27;100380.59;;;6.09;100.00
71716;BME280;59568;52.128;5.434;2023-01-13T04:42:55;100388.91;;;6.06;100.00
71716;BME280;59568;52.128;5.434;2023-01-13T04:45:21;100374.91;;;6.02;100.00
71716;BME280;59568;52.128;5.434;2023-01-13T04:47:51;100376.72;;;6.01;100.00
71716;BME280;59568;52.128;5.434;2023-01-13T04:50:17;100354.44;;;6.00;100.00
71716;BME280;59568;52.128;5.434;2023-01-13T04:52:49;100359.88;;;5.98;100.00
71716;BME280;59568;52.128;5.434;2023-01-13T04:55:16;100361.44;;;5.94;100.00
71716;BME280;59568;52.128;5.434;2023-01-13T04:57:44;100367.13;;;5.91;100.00
71716;BME280;59568;52.128;5.434;2023-01-13T05:00:14;100364.84;;;5.90;100.00
71716;BME280;59568;52.128;5.434;2023-01-13T05:02:41;100367.69;;;5.88;100.00
71716;BME280;59568;52.128;5.434;2023-01-13T05:05:08;100355.22;;;5.90;100.00
71716;BME280;59568;52.128;5.434;2023-01-13T05:07:35;100369.75;;;5.96;100.00
71716;BME280;59568;52.128;5.434;2023-01-13T05:10:02;100357.25;;;6.04;100.00
71716;BME280;59568;52.128;5.434;2023-01-13T05:12:29;100351.03;;;6.05;100.00
71716;BME280;59568;52.128;5.434;2023-01-13T05:15:14;100355.22;;;6.00;100.00
71716;BME280;59568;52.128;5.434;2023-01-13T05:18:11;100353.94;;;5.98;100.00
71716;BME280;59568;52.128;5.434;2023-01-13T05:20:38;100337.06;;;5.95;100.00
71716;BME280;59568;52.128;5.434;2023-01-13T05:23:05;100352.34;;;6.02;100.00
71716;BME280;59568;52.128;5.434;2023-01-13T05:25:51;100341.69;;;6.04;100.00
71716;BME280;59568;52.128;5.434;2023-01-13T05:28:18;100337.81;;;6.01;100.00
71716;BME280;59568;52.128;5.434;2023-01-13T05:30:46;100346.41;;;5.96;100.00
71716;BME280;59568;52.128;5.434;2023-01-13T05:33:17;100332.91;;;5.99;100.00
71716;BME280;59568;52.128;5.434;2023-01-13T05:35:45;100345.34;;;6.03;100.00
71716;BME280;59568;52.128;5.434;2023-01-13T05:38:13;100358.06;;;6.04;100.00
71716;BME280;59568;52.128;5.434;2023-01-13T05:40:41;100343.78;;;6.07;100.00
71716;BME280;59568;52.128;5.434;2023-01-13T05:43:27;100352.31;;;6.07;100.00
71716;BME280;59568;52.128;5.434;2023-01-13T05:45:57;100345.84;;;6.05;100.00
71716;BME280;59568;52.128;5.434;2023-01-13T05:48:35;100355.72;;;6.03;100.00
71716;BME280;59568;52.128;5.434;2023-01-13T05:51:05;100362.22;;;6.00;100.00
71716;BME280;59568;52.128;5.434;2023-01-13T05:53:34;100367.94;;;5.97;100.00
71716;BME280;59568;52.128;5.434;2023-01-13T05:56:06;100364.81;;;6.00;100.00
71716;BME280;59568;52.128;5.434;2023-01-13T05:58:33;100359.38;;;5.96;100.00
71716;BME280;59568;52.128;5.434;2023-01-13T06:01:04;100366.63;;;5.94;100.00
71716;BME280;59568;52.128;5.434;2023-01-13T06:03:34;100358.34;;;5.92;100.00
71716;BME280;59568;52.128;5.434;2023-01-13T06:06:02;100359.88;;;5.93;100.00
71716;BME280;59568;52.128;5.434;2023-01-13T06:08:30;100356.00;;;5.91;100.00
71716;BME280;59568;52.128;5.434;2023-01-13T06:10:57;100354.22;;;5.86;100.00
71716;BME280;59568;52.128;5.434;2023-01-13T06:13:24;100357.06;;;5.85;100.00
71716;BME280;59568;52.128;5.434;2023-01-13T06:15:56;100354.22;;;5.81;100.00
71716;BME280;59568;52.128;5.434;2023-01-13T06:18:24;100352.41;;;5.82;100.00
71716;BME280;59568;52.128;5.434;2023-01-13T06:20:52;100359.41;;;5.81;100.00
71716;BME280;59568;52.128;5.434;2023-01-13T06:23:19;100354.72;;;5.83;100.00
71716;BME280;59568;52.128;5.434;2023-01-13T06:26:06;100366.63;;;5.89;100.00
71716;BME280;59568;52.128;5.434;2023-01-13T06:28:36;100367.66;;;5.93;100.00
71716;BME280;59568;52.128;5.434;2023-01-13T06:31:05;100365.59;;;5.95;100.00
71716;BME280;59568;52.128;5.434;2023-01-13T06:33:36;100370.53;;;5.97;100.00
71716;BME280;59568;52.128;5.434;2023-01-13T06:36:12;100366.63;;;5.99;100.00
71716;BME280;59568;52.128;5.434;2023-01-13T06:38:44;100379.06;;;6.03;100.00
71716;BME280;59568;52.128;5.434;2023-01-13T06:41:12;100382.44;;;6.03;100.00
71716;BME280;59568;52.128;5.434;2023-01-13T06:43:39;100381.91;;;6.06;100.00
71716;BME280;59568;52.128;5.434;2023-01-13T06:46:06;100376.97;;;6.10;100.00
71716;BME280;59568;52.128;5.434;2023-01-13T06:48:33;100385.25;;;6.12;100.00
71716;BME280;59568;52.128;5.434;2023-01-13T06:51:02;100383.44;;;6.12;100.00
71716;BME280;59568;52.128;5.434;2023-01-13T06:53:28;100392.50;;;6.15;100.00
71716;BME280;59568;52.128;5.434;2023-01-13T06:55:55;100385.75;;;6.19;100.00
71716;BME280;59568;52.128;5.434;2023-01-13T06:58:22;100393.00;;;6.22;100.00
71716;BME280;59568;52.128;5.434;2023-01-13T07:00:48;100394.53;;;6.23;100.00
71716;BME280;59568;52.128;5.434;2023-01-13T07:03:17;100393.00;;;6.22;100.00
71716;BME280;59568;52.128;5.434;2023-01-13T07:05:51;100388.84;;;6.21;100.00
71716;BME280;59568;52.128;5.434;2023-01-13T07:08:18;100405.44;;;6.25;100.00
71716;BME280;59568;52.128;5.434;2023-01-13T07:10:45;100394.03;;;6.26;100.00
71716;BME280;59568;52.128;5.434;2023-01-13T07:13:13;100400.50;;;6.29;100.00
71716;BME280;59568;52.128;5.434;2023-01-13T07:16:00;100406.97;;;6.31;100.00
71716;BME280;59568;52.128;5.434;2023-01-13T07:18:30;100397.38;;;6.32;100.00
71716;BME280;59568;52.128;5.434;2023-01-13T07:21:06;100403.84;;;6.34;100.00
71716;BME280;59568;52.128;5.434;2023-01-13T07:23:39;100401.75;;;6.36;100.00
71716;BME280;59568;52.128;5.434;2023-01-13T07:26:12;100400.69;;;6.37;100.00
71716;BME280;59568;52.128;5.434;2023-01-13T07:28:59;100402.25;;;6.38;100.00
71716;BME280;59568;52.128;5.434;2023-01-13T07:31:26;100410.56;;;6.40;100.00
71716;BME280;59568;52.128;5.434;2023-01-13T07:33:52;100426.63;;;6.43;100.00
71716;BME280;59568;52.128;5.434;2023-01-13T07:36:19;100413.09;;;6.46;100.00
71716;BME280;59568;52.128;5.434;2023-01-13T07:38:45;100415.44;;;6.47;100.00
71716;BME280;59568;52.128;5.434;2023-01-13T07:41:13;100408.16;;;6.49;100.00
71716;BME280;59568;52.128;5.434;2023-01-13T07:43:59;100411.28;;;6.51;100.00
71716;BME280;59568;52.128;5.434;2023-01-13T07:46:25;100413.09;;;6.51;100.00
71716;BME280;59568;52.128;5.434;2023-01-13T07:48:52;100425.00;;;6.52;100.00
71716;BME280;59568;52.128;5.434;2023-01-13T07:51:19;100415.94;;;6.54;100.00
71716;BME280;59568;52.128;5.434;2023-01-13T07:53:46;100427.59;;;6.57;100.00
71716;BME280;59568;52.128;5.434;2023-01-13T07:56:12;100430.47;;;6.55;100.00
71716;BME280;59568;52.128;5.434;2023-01-13T07:58:39;100420.81;;;6.61;100.00
71716;BME280;59568;52.128;5.434;2023-01-13T08:01:23;100426.56;;;6.58;100.00
71716;BME280;59568;52.128;5.434;2023-01-13T08:04:33;100433.53;;;6.63;100.00
71716;BME280;59568;52.128;5.434;2023-01-13T08:07:21;100427.59;;;6.62;100.00
71716;BME280;59568;52.128;5.434;2023-01-13T08:10:34;100422.34;;;6.67;100.00
71716;BME280;59568;52.128;5.434;2023-01-13T08:13:00;100423.13;;;6.68;100.00
71716;BME280;59568;52.128;5.434;2023-01-13T08:15:48;100417.66;;;6.74;100.00
71716;BME280;59568;52.128;5.434;2023-01-13T08:18:20;100415.03;;;6.74;100.00
71716;BME280;59568;52.128;5.434;2023-01-13T08:20:48;100430.84;;;6.78;100.00
71716;BME280;59568;52.128;5.434;2023-01-13T08:23:15;100419.16;;;6.80;100.00
71716;BME280;59568;52.128;5.434;2023-01-13T08:25:43;100431.84;;;6.82;100.00
71716;BME280;59568;52.128;5.434;2023-01-13T08:28:11;100438.63;;;6.83;99.79
71716;BME280;59568;52.128;5.434;2023-01-13T08:30:38;100442.72;;;6.89;99.86
71716;BME280;59568;52.128;5.434;2023-01-13T08:33:07;100449.50;;;6.90;100.00
71716;BME280;59568;52.128;5.434;2023-01-13T08:35:36;100457.00;;;6.92;100.00
71716;BME280;59568;52.128;5.434;2023-01-13T08:38:04;100453.59;;;6.96;99.61
71716;BME280;59568;52.128;5.434;2023-01-13T08:40:35;100464.00;;;6.96;99.59
71716;BME280;59568;52.128;5.434;2023-01-13T08:43:02;100464.53;;;6.93;99.87
71716;BME280;59568;52.128;5.434;2023-01-13T08:45:37;100463.75;;;6.93;99.31
71716;BME280;59568;52.128;5.434;2023-01-13T08:48:09;100458.56;;;6.88;99.32
71716;BME280;59568;52.128;5.434;2023-01-13T08:50:43;100469.47;;;6.90;100.00
71716;BME280;59568;52.128;5.434;2023-01-13T08:53:12;100483.28;;;6.85;100.00
71716;BME280;59568;52.128;5.434;2023-01-13T08:55:57;100483.03;;;6.82;100.00
71716;BME280;59568;52.128;5.434;2023-01-13T08:58:34;100481.75;;;6.79;100.00
71716;BME280;59568;52.128;5.434;2023-01-13T09:01:28;100495.00;;;6.77;100.00
71716;BME280;59568;52.128;5.434;2023-01-13T09:04:16;100496.06;;;6.76;100.00
71716;BME280;59568;52.128;5.434;2023-01-13T09:07:04;100492.69;;;6.71;100.00
71716;BME280;59568;52.128;5.434;2023-01-13T09:09:30;100505.41;;;6.72;100.00
71716;BME280;59568;52.128;5.434;2023-01-13T09:11:57;100506.19;;;6.73;100.00
71716;BME280;59568;52.128;5.434;2023-01-13T09:14:43;100499.16;;;6.73;100.00
71716;BME280;59568;52.128;5.434;2023-01-13T09:17:11;100511.38;;;6.73;100.00
71716;BME280;59568;52.128;5.434;2023-01-13T09:19:37;100521.00;;;6.72;100.00
71716;BME280;59568;52.128;5.434;2023-01-13T09:22:04;100521.78;;;6.73;100.00
71716;BME280;59568;52.128;5.434;2023-01-13T09:24:33;100521.00;;;6.72;100.00
71716;BME280;59568;52.128;5.434;2023-01-13T09:27:02;100532.41;;;6.71;100.00
71716;BME280;59568;52.128;5.434;2023-01-13T09:29:29;100524.88;;;6.70;100.00
71716;BME280;59568;52.128;5.434;2023-01-13T09:31:57;100534.00;;;6.67;100.00
71716;BME280;59568;52.128;5.434;2023-01-13T09:34:41;100513.78;;;6.64;100.00
71716;BME280;59568;52.128;5.434;2023-01-13T09:37:45;100515.84;;;6.62;100.00
71716;BME280;59568;52.128;5.434;2023-01-13T09:40:15;100524.66;;;6.61;100.00
71716;BME280;59568;52.128;5.434;2023-01-13T09:42:57;100533.22;;;6.62;100.00
71716;BME280;59568;52.128;5.434;2023-01-13T09:45:49;100535.06;;;6.61;100.00
71716;BME280;59568;52.128;5.434;2023-01-13T09:48:28;100539.19;;;6.67;100.00
71716;BME280;59568;52.128;5.434;2023-01-13T09:51:09;100544.88;;;6.69;100.00
71716;BME280;59568;52.128;5.434;2023-01-13T09:54:24;100554.97;;;6.76;100.00
71716;BME280;59568;52.128;5.434;2023-01-13T09:57:13;100546.41;;;6.80;100.00
71716;BME280;59568;52.128;5.434;2023-01-13T09:59:41;100537.03;;;6.85;100.00
71716;BME280;59568;52.128;5.434;2023-01-13T10:05:15;100548.72;;;6.87;100.00
71716;BME280;59568;52.128;5.434;2023-01-13T10:07:49;100544.78;;;6.90;100.00
71716;BME280;59568;52.128;5.434;2023-01-13T10:10:31;100544.78;;;6.95;100.00
71716;BME280;59568;52.128;5.434;2023-01-13T10:13:29;100556.97;;;6.99;99.68
71716;BME280;59568;52.128;5.434;2023-01-13T10:16:26;100559.81;;;6.98;99.87
71716;BME280;59568;52.128;5.434;2023-01-13T10:19:11;100561.13;;;6.95;100.00
71716;BME280;59568;52.128;5.434;2023-01-13T10:32:46;100582.63;;;7.06;99.80
71716;BME280;59568;52.128;5.434;2023-01-13T10:35:17;100589.91;;;7.09;99.56
71716;BME280;59568;52.128;5.434;2023-01-13T10:37:55;100602.09;;;7.14;98.92
71716;BME280;59568;52.128;5.434;2023-01-13T10:40:22;100599.50;;;7.14;98.22
71716;BME280;59568;52.128;5.434;2023-01-13T10:43:03;100591.19;;;7.17;98.08
71716;BME280;59568;52.128;5.434;2023-01-13T10:45:31;100604.94;;;7.17;98.19
71716;BME280;59568;52.128;5.434;2023-01-13T10:48:06;100608.59;;;7.16;98.24
71716;BME280;59568;52.128;5.434;2023-01-13T10:50:39;100613.00;;;7.16;98.08
71716;BME280;59568;52.128;5.434;2023-01-13T10:53:17;100594.03;;;7.15;97.88
71716;BME280;59568;52.128;5.434;2023-01-13T10:56:01;100618.19;;;7.16;98.38
71716;BME280;59568;52.128;5.434;2023-01-13T10:58:28;100608.59;;;7.16;98.29
71716;BME280;59568;52.128;5.434;2023-01-13T11:01:05;100619.72;;;7.22;97.49
71716;BME280;59568;52.128;5.434;2023-01-13T11:03:54;100624.13;;;7.27;97.20
71716;BME280;59568;52.128;5.434;2023-01-13T11:06:27;100630.09;;;7.27;96.83
71716;BME280;59568;52.128;5.434;2023-01-13T11:08:56;100611.38;;;7.30;96.66
71716;BME280;59568;52.128;5.434;2023-01-13T11:11:40;100631.38;;;7.35;95.89
71716;BME280;59568;52.128;5.434;2023-01-13T11:17:08;100641.72;;;7.40;95.64
71716;BME280;59568;52.128;5.434;2023-01-13T11:19:40;100639.38;;;7.44;95.01
71716;BME280;59568;52.128;5.434;2023-01-13T11:22:20;100640.16;;;7.44;94.77
71716;BME280;59568;52.128;5.434;2023-01-13T11:24:54;100635.75;;;7.45;94.57
71716;BME280;59568;52.128;5.434;2023-01-13T11:27:39;100631.31;;;7.45;94.66
71716;BME280;59568;52.128;5.434;2023-01-13T11:30:16;100629.22;;;7.47;94.39
71716;BME280;59568;52.128;5.434;2023-01-13T11:35:34;100637.47;;;7.59;93.35
71716;BME280;59568;52.128;5.434;2023-01-13T11:40:58;100642.59;;;7.70;92.06
71716;BME280;59568;52.128;5.434;2023-01-13T11:43:33;100638.41;;;7.74;92.00
71716;BME280;59568;52.128;5.434;2023-01-13T11:46:08;100648.28;;;7.77;91.71
71716;BME280;59568;52.128;5.434;2023-01-13T11:48:39;100650.84;;;7.82;90.85
71716;BME280;59568;52.128;5.434;2023-01-13T12:05:21;100669.72;;;7.98;88.87
71716;BME280;59568;52.128;5.434;2023-01-13T12:16:27;100680.91;;;7.98;87.82
71716;BME280;59568;52.128;5.434;2023-01-13T12:22:11;100691.81;;;8.00;87.86
71716;BME280;59568;52.128;5.434;2023-01-13T12:24:44;100701.22;;;7.96;86.89
71716;BME280;59568;52.128;5.434;2023-01-13T12:27:22;100699.41;;;7.97;87.03
71716;BME280;59568;52.128;5.434;2023-01-13T12:29:52;100697.56;;;7.97;87.42
71716;BME280;59568;52.128;5.434;2023-01-13T12:32:29;100698.84;;;8.00;87.44
71716;BME280;59568;52.128;5.434;2023-01-13T12:35:27;100704.81;;;8.00;86.51
71716;BME280;59568;52.128;5.434;2023-01-13T12:41:01;100709.50;;;8.04;86.37
71716;BME280;59568;52.128;5.434;2023-01-13T12:43:32;100714.94;;;8.07;86.25
71716;BME280;59568;52.128;5.434;2023-01-13T12:48:46;100718.28;;;8.13;85.96
71716;BME280;59568;52.128;5.434;2023-01-13T12:56:59;100727.56;;;8.24;84.99
71716;BME280;59568;52.128;5.434;2023-01-13T13:04:50;100734.78;;;8.37;84.73
71716;BME280;59568;52.128;5.434;2023-01-13T13:07:41;100739.97;;;8.37;83.54
71716;BME280;59568;52.128;5.434;2023-01-13T13:10:17;100756.38;;;8.38;83.91
71716;BME280;59568;52.128;5.434;2023-01-13T13:13:00;100743.66;;;8.31;82.94
71716;BME280;59568;52.128;5.434;2023-01-13T13:15:47;100746.28;;;8.31;83.18
71716;BME280;59568;52.128;5.434;2023-01-13T13:21:09;100757.47;;;8.32;83.49
71716;BME280;59568;52.128;5.434;2023-01-13T13:38:07;100790.94;;;8.49;82.59
71716;BME280;59568;52.128;5.434;2023-01-13T13:41:10;100789.41;;;8.48;81.78
71716;BME280;59568;52.128;5.434;2023-01-13T13:44:01;100801.34;;;8.49;82.34
71716;BME280;59568;52.128;5.434;2023-01-13T13:46:49;100790.44;;;8.47;82.13
71716;BME280;59568;52.128;5.434;2023-01-13T13:49:19;100803.19;;;8.48;81.45
71716;BME280;59568;52.128;5.434;2023-01-13T13:52:07;100801.66;;;8.47;81.86
71716;BME280;59568;52.128;5.434;2023-01-13T13:54:40;100819.91;;;8.42;81.09
71716;BME280;59568;52.128;5.434;2023-01-13T13:57:26;100816.25;;;8.38;82.34
71716;BME280;59568;52.128;5.434;2023-01-13T13:59:57;100830.03;;;8.38;81.53
71716;BME280;59568;52.128;5.434;2023-01-13T14:02:34;100838.91;;;8.37;81.84
71716;BME280;59568;52.128;5.434;2023-01-13T14:05:07;100827.69;;;8.37;82.09
71716;BME280;59568;52.128;5.434;2023-01-13T14:07:46;100844.13;;;8.37;82.24
71716;BME280;59568;52.128;5.434;2023-01-13T14:10:17;100839.19;;;8.36;82.04
71716;BME280;59568;52.128;5.434;2023-01-13T14:12:44;100848.03;;;8.35;81.96
71716;BME280;59568;52.128;5.434;2023-01-13T14:15:25;100852.47;;;8.34;81.84
71716;BME280;59568;52.128;5.434;2023-01-13T14:17:53;100869.16;;;8.33;82.31
71716;BME280;59568;52.128;5.434;2023-01-13T14:20:19;100876.44;;;8.31;82.93
71716;BME280;59568;52.128;5.434;2023-01-13T14:22:48;100873.84;;;8.26;82.96
71716;BME280;59568;52.128;5.434;2023-01-13T14:27:54;100878.03;;;8.22;82.66
71716;BME280;59568;52.128;5.434;2023-01-13T14:30:25;100890.03;;;8.18;82.59
71716;BME280;59568;52.128;5.434;2023-01-13T14:33:18;100896.53;;;8.20;82.94
71716;BME280;59568;52.128;5.434;2023-01-13T14:36:18;100903.81;;;8.18;83.13
71716;BME280;59568;52.128;5.434;2023-01-13T14:41:42;100901.50;;;8.17;83.25
71716;BME280;59568;52.128;5.434;2023-01-13T14:44:32;100898.41;;;8.15;83.12
71716;BME280;59568;52.128;5.434;2023-01-13T14:47:17;100909.84;;;8.14;82.68
71716;BME280;59568;52.128;5.434;2023-01-13T14:52:46;100912.97;;;8.11;82.53
71716;BME280;59568;52.128;5.434;2023-01-13T14:55:35;100924.69;;;8.13;83.05
71716;BME280;59568;52.128;5.434;2023-01-13T14:58:26;100931.69;;;8.13;82.86
71716;BME280;59568;52.128;5.434;2023-01-13T15:01:29;100932.22;;;8.10;82.44
71716;BME280;59568;52.128;5.434;2023-01-13T15:04:24;100943.16;;;8.07;82.87
71716;BME280;59568;52.128;5.434;2023-01-13T15:06:54;100960.88;;;8.05;82.80
71716;BME280;59568;52.128;5.434;2023-01-13T15:09:42;100966.34;;;8.03;83.15
71716;BME280;59568;52.128;5.434;2023-01-13T15:12:37;100964.00;;;8.02;83.44
71716;BME280;59568;52.128;5.434;2023-01-13T15:15:34;100968.72;;;7.99;83.03
71716;BME280;59568;52.128;5.434;2023-01-13T15:18:12;100983.03;;;7.97;83.24
71716;BME280;59568;52.128;5.434;2023-01-13T15:20:39;100983.28;;;7.95;83.11
71716;BME280;59568;52.128;5.434;2023-01-13T15:23:07;100991.34;;;7.94;82.52
71716;BME280;59568;52.128;5.434;2023-01-13T15:25:35;100991.09;;;7.95;82.80
71716;BME280;59568;52.128;5.434;2023-01-13T15:28:03;101001.50;;;7.95;82.55
71716;BME280;59568;52.128;5.434;2023-01-13T15:30:30;101004.63;;;7.92;82.81
71716;BME280;59568;52.128;5.434;2023-01-13T15:32:58;101004.34;;;7.94;82.71
71716;BME280;59568;52.128;5.434;2023-01-13T15:35:28;101013.47;;;7.91;82.89